createdAt,value
2018-03-07T19:26:51.784Z,126.25
2018-03-07T19:29:21.570Z,127.40
2018-03-07T19:31:53.476Z,124.25
2018-03-07T19:34:23.103Z,123.60
2018-03-07T19:36:53.349Z,118.80
2018-03-07T19:39:23.516Z,115.40
2018-03-07T19:41:53.609Z,129.40
2018-03-07T19:44:23.133Z,122.60
2018-03-07T19:46:52.860Z,122.60
2018-03-07T19:49:22.454Z,123.20
2018-03-07T19:51:51.939Z,119.00
2018-03-07T19:54:21.667Z,116.80
2018-03-07T19:56:51.301Z,118.00
2018-03-07T19:59:20.867Z,115.40
2018-03-07T20:01:50.910Z,120.00
2018-03-07T20:04:20.265Z,114.40
2018-03-07T20:06:49.450Z,116.20
2018-03-07T20:09:19.009Z,118.80
2018-03-07T20:11:48.562Z,123.80
2018-03-07T20:14:18.048Z,119.40
2018-03-07T20:16:47.461Z,120.40
2018-03-07T20:19:17.566Z,122.20
2018-03-07T20:21:46.949Z,119.20
2018-03-07T20:24:16.545Z,124.00
2018-03-07T20:26:45.917Z,119.00
2018-03-07T20:29:15.424Z,120.00
2018-03-07T20:31:44.718Z,124.60
2018-03-07T20:34:14.384Z,125.00
2018-03-07T20:36:43.517Z,123.20
2018-03-07T20:39:13.031Z,124.20
2018-03-07T20:41:42.376Z,122.20
2018-03-07T20:44:11.966Z,126.20
2018-03-07T20:46:41.258Z,123.00
2018-03-07T20:49:10.680Z,125.20
2018-03-07T20:51:40.269Z,127.80
2018-03-07T20:54:09.678Z,124.40
2018-03-07T20:56:39.028Z,125.00
2018-03-07T20:59:08.382Z,127.60
2018-03-07T21:01:38.106Z,125.00
2018-03-07T21:04:07.598Z,121.80
2018-03-07T21:06:36.876Z,127.60
2018-03-07T21:09:06.366Z,124.40
2018-03-07T21:11:35.826Z,121.40
2018-03-07T21:14:05.483Z,131.40
2018-03-07T21:16:35.068Z,121.20
2018-03-07T21:19:04.446Z,127.40
2018-03-07T21:21:34.119Z,130.40
2018-03-07T21:24:03.559Z,128.00
2018-03-07T21:26:32.853Z,129.60
2018-03-07T21:29:02.414Z,129.40
2018-03-07T21:31:31.892Z,130.80
2018-03-07T21:34:01.563Z,131.00
2018-03-07T21:36:31.004Z,122.80
2018-03-07T21:39:00.466Z,127.80
2018-03-07T21:41:29.844Z,126.80
2018-03-07T21:43:59.441Z,131.60
2018-03-07T21:46:28.758Z,129.20
2018-03-07T21:48:57.993Z,137.80
2018-03-07T21:51:27.385Z,130.60
2018-03-07T21:53:56.742Z,131.20
2018-03-07T21:56:26.087Z,135.40
2018-03-07T21:58:55.519Z,138.00
2018-03-07T22:01:24.858Z,147.40
2018-03-07T22:03:54.336Z,134.60
2018-03-07T22:06:23.676Z,141.00
2018-03-07T22:08:53.363Z,141.80
2018-03-07T22:11:22.656Z,145.20
2018-03-07T22:13:52.305Z,145.20
2018-03-07T22:16:21.760Z,141.60
2018-03-07T22:18:51.349Z,138.40
2018-03-07T22:21:20.881Z,151.40
2018-03-07T22:23:50.370Z,148.00
2018-03-07T22:26:19.688Z,143.60
2018-03-07T22:28:49.187Z,141.20
2018-03-07T22:31:18.566Z,155.80
2018-03-07T22:33:48.790Z,152.00
2018-03-07T22:36:18.296Z,150.80
2018-03-07T22:38:47.810Z,157.00
2018-03-07T22:41:17.445Z,151.00
2018-03-07T22:43:46.929Z,150.20
2018-03-07T22:46:16.473Z,147.60
2018-03-07T22:48:45.862Z,147.60
2018-03-07T22:51:15.529Z,150.20
2018-03-07T22:53:44.995Z,150.40
2018-03-07T22:56:14.601Z,149.40
2018-03-07T22:58:44.878Z,144.80
2018-03-07T23:01:14.696Z,153.00
2018-03-07T23:03:44.014Z,146.00
2018-03-07T23:06:13.233Z,145.20
2018-03-07T23:08:42.678Z,152.00
2018-03-07T23:11:12.171Z,150.60
2018-03-07T23:13:41.283Z,142.20
2018-03-07T23:16:10.871Z,154.40
2018-03-07T23:18:40.441Z,132.60
2018-03-07T23:21:09.850Z,142.60
2018-03-07T23:23:39.208Z,149.00
2018-03-07T23:26:08.647Z,147.60
2018-03-07T23:28:38.182Z,148.20
2018-03-07T23:31:07.602Z,149.00
2018-03-07T23:33:37.333Z,139.60
2018-03-07T23:36:06.607Z,146.80
2018-03-07T23:38:36.203Z,148.40
2018-03-07T23:41:05.657Z,147.20
2018-03-07T23:43:35.230Z,157.00
2018-03-07T23:46:04.590Z,167.60
2018-03-07T23:48:34.046Z,181.75
2018-03-07T23:51:03.543Z,182.00
2018-03-07T23:53:33.125Z,178.50
2018-03-07T23:56:02.798Z,186.75
2018-03-07T23:58:32.315Z,177.25
